Time;durP1;ratioP1;P1;durP2;ratioP2;P2;SDS_P1;SDS_P2;PMS_P1;PMS_P2;Temp;Humidity;BMP_temperature;BMP_pressure;BME280_temperature;BME280_humidity;BME280_pressure;Samples;Min_cycle;Max_cycle;Signal;HPM_P1;HPM_P2
2022/04/22 00:01:23;;;;;;;0.97;0.80;;;13.00;99.90;;;;;;6310665;22;20188;-92
2022/04/22 00:07:05;;;;;;;3.87;1.00;;;13.60;99.90;;;;;;6335546;22;20174;-93
2022/04/22 00:09:38;;;;;;;1.43;0.90;;;14.00;99.90;;;;;;6334623;22;20210;-93
2022/04/22 00:12:13;;;;;;;1.63;1.00;;;14.00;99.90;;;;;;6336637;22;20256;-92
2022/04/22 00:14:46;;;;;;;1.57;1.00;;;13.90;99.90;;;;;;6330434;22;20165;-92
2022/04/22 00:17:20;;;;;;;1.60;0.83;;;13.70;99.90;;;;;;6303161;22;20205;-93
2022/04/22 00:19:58;;;;;;;2.03;1.00;;;13.90;99.90;;;;;;6304812;22;20174;-92
2022/04/22 00:22:29;;;;;;;1.90;0.90;;;14.00;99.90;;;;;;6326753;22;20660;-92
2022/04/22 00:27:58;;;;;;;2.03;0.97;;;13.40;99.90;;;;;;6326374;22;20170;-91
2022/04/22 00:30:30;;;;;;;2.57;1.10;;;13.60;99.90;;;;;;6324512;22;20177;-92
2022/04/22 00:33:04;;;;;;;3.27;0.90;;;13.50;99.90;;;;;;6291979;22;20225;-91
2022/04/22 00:35:38;;;;;;;1.50;1.10;;;13.40;99.90;;;;;;6315961;22;20170;-91
2022/04/22 00:38:10;;;;;;;2.20;1.10;;;13.00;99.90;;;;;;6291087;22;20174;-92
2022/04/22 00:40:43;;;;;;;1.77;1.00;;;13.00;99.90;;;;;;6292192;22;20174;-92
2022/04/22 00:43:41;;;;;;;1.90;1.07;;;12.70;99.90;;;;;;6316133;22;20243;-93
2022/04/22 00:46:13;;;;;;;3.57;1.10;;;12.70;99.90;;;;;;6287649;22;20197;-92
2022/04/22 00:48:45;;;;;;;2.93;1.27;;;12.80;99.90;;;;;;6288370;22;20174;-90
2022/04/22 00:51:21;;;;;;;4.23;1.10;;;12.70;99.90;;;;;;6329017;22;20204;-92
2022/04/22 00:54:03;;;;;;;2.00;1.03;;;12.20;99.90;;;;;;6329562;22;20197;-90
2022/04/22 00:56:35;;;;;;;2.63;1.30;;;12.10;99.90;;;;;;6317141;22;20609;-91
2022/04/22 00:59:09;;;;;;;1.93;1.43;;;12.00;99.90;;;;;;6313477;22;20175;-90
2022/04/22 01:01:41;;;;;;;2.07;1.20;;;11.80;99.90;;;;;;6322431;22;20174;-89
2022/04/22 01:09:58;;;;;;;1.30;0.80;;;11.70;99.90;;;;;;6329259;22;20174;-91
2022/04/22 01:12:31;;;;;;;2.43;0.90;;;11.60;99.90;;;;;;6332571;22;20178;-92
2022/04/22 01:15:06;;;;;;;1.90;1.00;;;11.40;99.90;;;;;;6322905;22;20181;-91
2022/04/22 01:17:38;;;;;;;0.83;0.60;;;10.90;99.90;;;;;;6296809;22;20162;-91
2022/04/22 01:20:13;;;;;;;1.40;1.10;;;10.60;99.90;;;;;;6324127;22;20170;-91
2022/04/22 01:22:46;;;;;;;1.07;0.87;;;10.50;99.90;;;;;;6321641;22;20202;-89
2022/04/22 01:25:17;;;;;;;1.03;0.60;;;10.20;99.90;;;;;;6323921;22;20209;-90
2022/04/22 01:27:56;;;;;;;1.40;0.60;;;10.10;99.90;;;;;;6320656;22;20178;-91
2022/04/22 01:30:28;;;;;;;0.70;0.70;;;10.10;99.90;;;;;;6319974;22;20178;-91
2022/04/22 01:33:04;;;;;;;0.70;0.50;;;10.10;99.90;;;;;;6272434;22;20276;-91
2022/04/22 01:38:20;;;;;;;3.23;0.80;;;10.10;99.90;;;;;;6357346;22;20201;-91
2022/04/22 01:40:53;;;;;;;1.17;0.80;;;10.10;99.90;;;;;;6329705;22;20173;-91
2022/04/22 01:43:25;;;;;;;1.60;0.80;;;10.00;99.90;;;;;;6331963;22;20189;-90
2022/04/22 01:46:15;;;;;;;1.53;1.13;;;9.80;99.90;;;;;;6333956;22;20178;-89
2022/04/22 01:48:47;;;;;;;1.87;0.90;;;9.80;99.90;;;;;;6330049;22;20185;-91
2022/04/22 01:51:19;;;;;;;0.70;0.60;;;9.80;99.90;;;;;;6303492;22;20162;-90
2022/04/22 01:54:13;;;;;;;1.30;0.73;;;9.80;99.90;;;;;;6331866;22;20193;-90
2022/04/22 01:56:47;;;;;;;2.20;0.90;;;9.70;99.90;;;;;;6327612;22;20178;-92
2022/04/22 01:59:25;;;;;;;2.63;0.80;;;9.70;99.90;;;;;;6327845;22;20175;-91
2022/04/22 02:02:00;;;;;;;1.30;0.70;;;9.60;99.90;;;;;;6298385;22;20174;-91
2022/04/22 02:04:32;;;;;;;2.90;0.87;;;9.50;99.90;;;;;;6330752;22;20262;-92
2022/04/22 02:07:08;;;;;;;3.60;1.10;;;9.50;99.90;;;;;;6325536;22;20233;-90
2022/04/22 02:09:49;;;;;;;2.50;0.87;;;9.40;99.90;;;;;;6302215;22;20179;-91
2022/04/22 02:12:24;;;;;;;1.97;0.80;;;9.40;99.90;;;;;;6329459;22;20173;-93
2022/04/22 02:14:56;;;;;;;3.03;0.90;;;9.50;99.90;;;;;;6326353;22;20178;-91
2022/04/22 02:17:27;;;;;;;1.17;0.97;;;9.50;99.90;;;;;;6326186;22;20617;-91
2022/04/22 02:19:59;;;;;;;2.47;0.97;;;9.40;99.90;;;;;;6334067;22;20181;-92
2022/04/22 02:22:31;;;;;;;1.10;0.70;;;9.30;99.90;;;;;;6309077;22;20181;-92
2022/04/22 02:25:06;;;;;;;2.30;0.70;;;9.20;99.90;;;;;;6333981;22;20186;-93
2022/04/22 02:30:28;;;;;;;0.90;0.70;;;9.20;99.90;;;;;;6329058;22;20174;-92
2022/04/22 02:33:01;;;;;;;1.60;0.87;;;8.90;99.90;;;;;;6327997;22;20163;-90
2022/04/22 02:35:34;;;;;;;1.10;0.73;;;8.90;99.90;;;;;;6300765;22;20499;-90
2022/04/22 02:38:06;;;;;;;1.13;0.70;;;8.60;99.90;;;;;;6324698;22;20475;-91
2022/04/22 02:46:33;;;;;;;1.43;0.90;;;8.30;99.90;;;;;;6327969;22;20163;-91
2022/04/22 02:49:05;;;;;;;0.80;0.73;;;8.20;99.90;;;;;;6325435;22;20203;-90
2022/04/22 02:51:41;;;;;;;1.33;0.70;;;8.20;99.90;;;;;;6327192;22;20170;-91
2022/04/22 02:54:14;;;;;;;1.47;0.87;;;8.20;99.90;;;;;;6326579;22;20170;-90
2022/04/22 02:56:52;;;;;;;1.43;0.80;;;8.00;99.90;;;;;;6279366;22;20173;-91
2022/04/22 02:59:29;;;;;;;1.20;0.77;;;8.00;99.90;;;;;;6324624;22;20182;-90
2022/04/22 03:02:10;;;;;;;2.00;0.90;;;8.10;99.90;;;;;;6326894;22;20174;-90
2022/04/22 03:04:47;;;;;;;1.77;0.90;;;8.00;99.90;;;;;;6328662;22;20193;-91
2022/04/22 03:07:28;;;;;;;1.93;0.80;;;7.90;99.90;;;;;;6325834;22;20178;-92
2022/04/22 03:10:01;;;;;;;1.20;0.83;;;8.00;99.90;;;;;;6329528;22;20200;-91
2022/04/22 03:12:36;;;;;;;1.60;1.00;;;8.00;99.90;;;;;;6331193;22;20167;-91
2022/04/22 03:15:17;;;;;;;2.00;0.90;;;8.00;99.90;;;;;;6332526;22;20146;-91
2022/04/22 03:17:50;;;;;;;0.90;0.80;;;8.00;99.90;;;;;;6326206;22;20592;-90
2022/04/22 03:20:23;;;;;;;1.63;0.90;;;7.90;99.90;;;;;;6329759;22;20215;-91
2022/04/22 03:22:58;;;;;;;3.23;1.70;;;8.00;99.90;;;;;;6325275;22;20659;-91
2022/04/22 03:25:30;;;;;;;2.63;1.70;;;8.10;99.90;;;;;;6325982;22;20222;-92
2022/04/22 03:28:10;;;;;;;2.00;1.57;;;8.20;99.90;;;;;;6300728;22;20229;-91
2022/04/22 03:30:45;;;;;;;1.20;1.10;;;8.30;99.90;;;;;;6334109;22;20150;-90
2022/04/22 03:33:17;;;;;;;1.03;0.93;;;8.40;99.90;;;;;;6316305;22;20170;-92
2022/04/22 03:35:51;;;;;;;2.30;1.20;;;8.40;99.90;;;;;;6315320;22;20649;-91
2022/04/22 03:38:23;;;;;;;2.00;1.30;;;8.40;99.90;;;;;;6313332;22;20213;-91
2022/04/22 03:40:56;;;;;;;3.37;2.23;;;8.40;99.90;;;;;;6288765;22;20174;-90
2022/04/22 03:43:30;;;;;;;1.90;1.60;;;8.50;99.90;;;;;;6325904;22;20224;-91
2022/04/22 03:46:02;;;;;;;3.40;2.63;;;8.50;99.90;;;;;;6323110;22;20550;-91
2022/04/22 03:48:35;;;;;;;4.30;2.77;;;8.50;99.90;;;;;;6302445;22;20179;-90
2022/04/22 03:51:10;;;;;;;2.53;1.80;;;8.50;99.90;;;;;;6318327;22;20179;-91
2022/04/22 03:53:56;;;;;;;3.90;2.13;;;8.50;99.90;;;;;;6317213;22;20174;-89
2022/04/22 03:59:19;;;;;;;4.53;1.93;;;8.40;99.90;;;;;;6303794;22;20174;-91
2022/04/22 04:01:52;;;;;;;6.10;2.07;;;8.40;99.90;;;;;;6322314;22;20174;-90
2022/04/22 04:04:25;;;;;;;3.33;1.60;;;8.30;99.90;;;;;;6317361;22;20194;-90
2022/04/22 04:06:59;;;;;;;1.90;1.30;;;8.20;99.90;;;;;;6329615;22;20166;-89
2022/04/22 04:17:57;;;;;;;6.40;2.77;;;7.90;99.90;;;;;;6317326;22;20178;-91
2022/04/22 04:23:17;;;;;;;3.93;2.77;;;8.00;99.90;;;;;;6336290;22;20178;-91
2022/04/22 04:25:51;;;;;;;4.67;2.50;;;7.90;99.90;;;;;;6310909;22;20166;-92
2022/04/22 04:28:23;;;;;;;3.83;2.50;;;7.90;99.90;;;;;;6298642;22;20162;-91
2022/04/22 04:30:57;;;;;;;3.23;2.20;;;7.80;99.90;;;;;;6324649;22;20253;-91
2022/04/22 04:33:28;;;;;;;2.60;1.80;;;7.80;99.90;;;;;;6335102;22;20158;-91
2022/04/22 04:36:00;;;;;;;3.73;2.40;;;7.70;99.90;;;;;;6335607;22;20174;-92
2022/04/22 04:38:33;;;;;;;3.47;2.17;;;7.70;99.90;;;;;;6329895;22;20182;-94
2022/04/22 04:41:05;;;;;;;5.43;2.80;;;7.70;99.90;;;;;;6292639;22;20166;-91
2022/04/22 04:43:38;;;;;;;4.33;2.50;;;7.70;99.90;;;;;;6317617;22;20188;-90
2022/04/22 04:46:11;;;;;;;3.60;2.00;;;7.70;99.90;;;;;;6318592;22;20166;-90
2022/04/22 04:48:43;;;;;;;5.23;3.43;;;7.70;99.90;;;;;;6324816;22;20166;-90
2022/04/22 04:51:16;;;;;;;6.73;3.93;;;7.70;99.90;;;;;;6327452;22;20166;-90
2022/04/22 04:53:50;;;;;;;8.43;5.00;;;7.70;99.90;;;;;;6325355;22;20175;-91
2022/04/22 04:56:22;;;;;;;7.27;4.23;;;7.70;99.90;;;;;;6325781;22;20200;-90
2022/04/22 04:58:53;;;;;;;6.87;3.23;;;7.60;99.90;;;;;;6315409;22;20178;-89
2022/04/22 05:01:27;;;;;;;7.73;3.67;;;7.60;99.90;;;;;;6295787;22;20174;-89
2022/04/22 05:03:58;;;;;;;8.00;4.13;;;7.70;99.90;;;;;;6313342;22;20178;-90
2022/04/22 05:06:29;;;;;;;6.60;2.33;;;7.60;99.90;;;;;;6313217;22;20181;-90
2022/04/22 05:09:04;;;;;;;1.60;1.27;;;7.60;99.90;;;;;;6312382;22;20198;-91
2022/04/22 05:11:36;;;;;;;1.57;1.00;;;7.60;99.90;;;;;;6313093;22;20166;-90
2022/04/22 05:14:09;;;;;;;2.30;1.20;;;7.70;99.90;;;;;;6326719;22;20177;-90
2022/04/22 05:16:42;;;;;;;2.07;1.13;;;7.60;99.90;;;;;;6315683;22;20181;-90
2022/04/22 05:19:16;;;;;;;2.73;1.20;;;7.50;99.90;;;;;;6312336;22;20295;-91
2022/04/22 05:21:49;;;;;;;1.90;1.37;;;7.60;99.90;;;;;;6314071;22;20166;-91
2022/04/22 05:24:20;;;;;;;1.53;1.30;;;7.60;99.90;;;;;;6313659;22;20198;-90
2022/04/22 05:26:52;;;;;;;2.33;1.60;;;7.60;99.90;;;;;;6314072;22;20213;-90
2022/04/22 05:35:01;;;;;;;1.40;1.07;;;7.50;99.90;;;;;;6313894;22;20177;-90
2022/04/22 05:37:48;;;;;;;2.50;1.30;;;7.50;99.90;;;;;;6311565;22;20175;-90
2022/04/22 05:40:24;;;;;;;1.43;1.10;;;7.40;99.90;;;;;;6313312;22;20227;-90
2022/04/22 05:42:57;;;;;;;1.60;1.30;;;7.40;99.90;;;;;;6313018;22;20181;-90
2022/04/22 05:45:29;;;;;;;2.07;1.27;;;7.30;99.90;;;;;;6313102;22;20189;-91
2022/04/22 05:48:03;;;;;;;1.73;1.17;;;7.30;99.90;;;;;;6311271;22;20190;-91
2022/04/22 05:50:34;;;;;;;2.63;1.57;;;7.20;99.90;;;;;;6312559;22;20257;-90
2022/04/22 05:53:06;;;;;;;3.40;1.60;;;7.10;99.90;;;;;;6288771;22;20181;-91
2022/04/22 05:55:37;;;;;;;5.80;2.40;;;7.10;99.90;;;;;;6317731;22;20170;-90
2022/04/22 05:58:10;;;;;;;3.03;1.47;;;7.00;99.90;;;;;;6297972;22;20181;-90
2022/04/22 06:00:43;;;;;;;2.27;1.37;;;7.00;99.90;;;;;;6312980;22;20212;-91
2022/04/22 06:03:17;;;;;;;7.10;2.90;;;6.90;99.90;;;;;;6286164;22;20174;-90
2022/04/22 06:05:49;;;;;;;2.20;1.70;;;6.90;99.90;;;;;;6312740;22;20193;-90
2022/04/22 06:11:09;;;;;;;3.90;2.40;;;6.90;99.90;;;;;;6318191;22;20194;-90
2022/04/22 06:13:41;;;;;;;3.67;1.40;;;6.90;99.90;;;;;;6325871;22;20173;-91
2022/04/22 06:16:17;;;;;;;2.77;1.70;;;6.90;99.90;;;;;;6331823;22;20612;-90
2022/04/22 06:18:53;;;;;;;2.50;1.57;;;6.80;99.90;;;;;;6330037;22;20196;-90
2022/04/22 06:21:24;;;;;;;3.07;1.40;;;6.80;99.90;;;;;;6330061;22;20174;-91
2022/04/22 06:23:56;;;;;;;1.93;1.70;;;6.80;99.90;;;;;;6326871;22;20174;-90
2022/04/22 06:26:28;;;;;;;3.33;1.90;;;6.80;99.90;;;;;;6316700;22;20218;-90
2022/04/22 06:28:59;;;;;;;2.97;1.97;;;6.80;99.90;;;;;;6315221;22;20201;-90
2022/04/22 06:31:30;;;;;;;2.90;2.33;;;6.60;99.90;;;;;;6288548;22;20197;-91
2022/04/22 06:34:04;;;;;;;3.57;2.33;;;6.60;99.90;;;;;;6314610;22;20174;-90
2022/04/22 06:36:43;;;;;;;3.40;2.03;;;6.50;99.90;;;;;;6316955;22;20158;-90
2022/04/22 06:39:16;;;;;;;4.27;1.90;;;6.50;99.90;;;;;;6288064;22;20224;-91
2022/04/22 06:47:25;;;;;;;1.50;1.30;;;6.50;99.90;;;;;;6295970;22;20247;-91
2022/04/22 06:50:00;;;;;;;3.10;1.60;;;6.40;99.90;;;;;;6330806;22;20174;-90
2022/04/22 06:52:33;;;;;;;1.93;1.73;;;6.40;99.90;;;;;;6304689;22;20177;-90
2022/04/22 06:55:05;;;;;;;2.13;1.67;;;6.30;99.90;;;;;;6317937;22;20244;-89
2022/04/22 06:57:39;;;;;;;3.40;1.63;;;6.30;99.90;;;;;;6311405;22;20194;-89
2022/04/22 07:00:13;;;;;;;3.57;1.77;;;6.20;99.90;;;;;;6286269;22;20180;-91
2022/04/22 07:02:46;;;;;;;3.50;1.87;;;6.20;99.90;;;;;;6288865;22;20198;-89
2022/04/22 07:05:23;;;;;;;1.80;1.63;;;6.10;99.90;;;;;;6313572;22;20320;-90
2022/04/22 07:07:54;;;;;;;3.37;2.07;;;6.10;99.90;;;;;;6311717;22;20189;-90
2022/04/22 07:10:27;;;;;;;3.27;1.60;;;6.10;99.90;;;;;;6259772;22;20178;-90
2022/04/22 07:13:00;;;;;;;2.60;1.37;;;6.10;99.90;;;;;;6312000;22;20231;-90
2022/04/22 07:15:31;;;;;;;3.03;1.90;;;6.10;99.90;;;;;;6311725;22;20202;-90
2022/04/22 07:18:05;;;;;;;3.07;1.57;;;6.00;99.90;;;;;;6286111;22;20185;-90
2022/04/22 07:20:39;;;;;;;1.40;1.30;;;6.00;99.90;;;;;;6270578;22;20277;-90
2022/04/22 07:23:14;;;;;;;1.93;1.50;;;6.00;99.90;;;;;;6284752;22;20231;-90
2022/04/22 07:25:48;;;;;;;2.20;1.60;;;6.00;99.90;;;;;;6311741;22;20209;-88
2022/04/22 07:28:21;;;;;;;1.77;1.50;;;6.00;99.90;;;;;;6311663;22;20360;-91
2022/04/22 07:30:54;;;;;;;2.80;1.57;;;6.00;99.90;;;;;;6295225;22;20173;-90
2022/04/22 07:33:25;;;;;;;3.50;1.80;;;5.90;99.90;;;;;;6292756;22;20545;-89
2022/04/22 07:36:00;;;;;;;4.00;2.00;;;5.90;99.90;;;;;;6312078;22;20171;-90
2022/04/22 07:38:31;;;;;;;2.90;1.80;;;5.80;99.90;;;;;;6294477;22;20190;-91
2022/04/22 07:41:03;;;;;;;2.20;1.77;;;5.70;99.90;;;;;;6314612;22;20177;-90
2022/04/22 07:49:11;;;;;;;2.93;2.00;;;5.80;99.90;;;;;;6328649;22;20223;-90
2022/04/22 07:51:46;;;;;;;1.90;1.50;;;5.80;99.90;;;;;;6294217;22;20190;-91
2022/04/22 07:54:17;;;;;;;2.67;1.60;;;5.80;99.90;;;;;;6326644;22;20494;-90
2022/04/22 07:56:48;;;;;;;2.50;1.80;;;5.80;99.90;;;;;;6312689;22;20202;-90
2022/04/22 07:59:25;;;;;;;3.43;2.00;;;5.80;99.90;;;;;;6311511;22;20218;-91
2022/04/22 08:01:58;;;;;;;1.67;1.50;;;5.70;99.90;;;;;;6319312;22;20576;-90
2022/04/22 08:04:34;;;;;;;1.97;1.50;;;5.70;99.90;;;;;;6319060;22;20200;-90
2022/04/22 08:07:08;;;;;;;3.27;1.87;;;5.70;99.90;;;;;;6313147;22;20212;-90
2022/04/22 08:09:56;;;;;;;2.43;1.90;;;5.70;99.90;;;;;;6314724;22;20229;-91
2022/04/22 08:12:28;;;;;;;2.63;1.80;;;5.60;99.90;;;;;;6313365;22;20168;-90
2022/04/22 08:15:00;;;;;;;4.50;1.87;;;5.60;99.90;;;;;;6312875;22;20202;-90
2022/04/22 08:17:37;;;;;;;3.03;1.83;;;5.60;99.90;;;;;;6312868;22;20175;-90
2022/04/22 08:20:11;;;;;;;2.43;1.47;;;5.60;99.90;;;;;;6313630;22;20193;-90
2022/04/22 08:22:45;;;;;;;2.87;1.47;;;5.60;99.90;;;;;;6314322;22;20232;-89
2022/04/22 08:25:16;;;;;;;3.10;2.10;;;5.60;99.90;;;;;;6313292;22;20166;-90
2022/04/22 08:27:48;;;;;;;4.27;1.73;;;5.60;99.90;;;;;;6312186;22;20631;-90
2022/04/22 08:30:19;;;;;;;2.73;1.53;;;5.50;99.90;;;;;;6312925;22;20181;-90
2022/04/22 08:32:52;;;;;;;2.27;1.50;;;5.50;99.90;;;;;;6313029;22;20545;-90
2022/04/22 08:35:24;;;;;;;3.57;1.87;;;5.50;99.90;;;;;;6288225;22;20212;-90
2022/04/22 08:37:59;;;;;;;2.63;1.90;;;5.50;99.90;;;;;;6312481;22;20175;-89
2022/04/22 08:40:31;;;;;;;2.53;1.70;;;5.50;99.90;;;;;;6315478;22;20162;-90
2022/04/22 08:43:04;;;;;;;3.87;1.77;;;5.50;99.90;;;;;;6315379;22;20178;-91
2022/04/22 08:45:35;;;;;;;3.50;1.60;;;5.50;99.90;;;;;;6314743;22;20197;-91
2022/04/22 08:50:56;;;;;;;2.20;2.00;;;5.50;99.90;;;;;;6313608;22;20174;-91
2022/04/22 08:53:31;;;;;;;3.57;2.80;;;5.50;99.90;;;;;;6318951;22;20177;-90
2022/04/22 08:56:05;;;;;;;3.10;2.27;;;5.50;99.90;;;;;;6315054;22;20166;-90
2022/04/22 08:58:37;;;;;;;4.40;2.23;;;5.50;99.90;;;;;;6320483;22;20189;-90
2022/04/22 09:01:09;;;;;;;4.50;2.40;;;5.50;99.90;;;;;;6332741;22;20178;-91
2022/04/22 09:03:41;;;;;;;5.20;2.57;;;5.50;99.90;;;;;;6334550;22;20158;-90
2022/04/22 09:06:14;;;;;;;4.97;2.40;;;5.50;99.90;;;;;;6309058;22;20541;-89
2022/04/22 09:08:48;;;;;;;3.50;2.47;;;5.40;99.90;;;;;;6334335;22;20170;-89
2022/04/22 09:11:19;;;;;;;3.80;2.00;;;5.50;99.90;;;;;;6334148;22;20181;-90
2022/04/22 09:13:52;;;;;;;2.43;1.67;;;5.50;99.90;;;;;;6281635;22;20162;-90
2022/04/22 09:16:25;;;;;;;2.20;1.80;;;5.50;99.90;;;;;;6326566;22;20163;-90
2022/04/22 09:19:01;;;;;;;4.53;1.80;;;5.50;99.90;;;;;;6332788;22;20234;-89
2022/04/22 09:21:34;;;;;;;2.80;1.80;;;5.50;99.90;;;;;;6334488;22;20229;-90
2022/04/22 09:24:17;;;;;;;1.80;1.63;;;5.50;99.90;;;;;;6334123;22;20166;-89
2022/04/22 09:27:04;;;;;;;2.00;1.90;;;5.50;99.90;;;;;;6333783;22;20212;-89
2022/04/22 09:29:47;;;;;;;2.97;2.07;;;5.50;99.90;;;;;;6330063;22;20178;-87
2022/04/22 09:32:25;;;;;;;3.07;1.97;;;5.60;99.90;;;;;;6330907;22;20171;-90
2022/04/22 09:34:59;;;;;;;3.27;2.10;;;5.60;99.90;;;;;;6304694;22;20165;-90
2022/04/22 09:43:24;;;;;;;2.83;2.27;;;5.40;99.90;;;;;;6204371;23;20195;-89
2022/04/22 09:45:56;;;;;;;3.50;2.17;;;5.40;99.90;;;;;;6307805;22;20185;-90
2022/04/22 09:48:27;;;;;;;2.87;2.20;;;5.50;99.90;;;;;;6333472;22;20170;-89
2022/04/22 09:51:00;;;;;;;3.83;2.00;;;5.60;99.90;;;;;;6334202;22;20182;-90
2022/04/22 09:53:35;;;;;;;2.00;1.77;;;5.80;99.90;;;;;;6334038;22;20189;-90
2022/04/22 09:56:11;;;;;;;3.50;2.20;;;5.90;99.90;;;;;;6325292;22;20181;-90
2022/04/22 09:58:43;;;;;;;4.37;2.70;;;5.90;99.90;;;;;;6322053;22;20178;-90
2022/04/22 10:01:14;;;;;;;4.03;2.63;;;6.00;99.90;;;;;;6318882;22;20175;-90
2022/04/22 10:03:47;;;;;;;3.07;2.37;;;6.00;99.90;;;;;;6290546;22;20186;-89
2022/04/22 10:06:20;;;;;;;2.70;2.27;;;6.10;99.90;;;;;;6316978;22;20235;-90
2022/04/22 10:08:54;;;;;;;3.70;2.47;;;6.20;99.90;;;;;;6290183;22;20258;-89
2022/04/22 10:11:30;;;;;;;4.33;2.60;;;6.30;99.90;;;;;;6315110;22;20170;-89
2022/04/22 10:14:05;;;;;;;3.17;2.87;;;6.30;99.90;;;;;;6288185;22;20219;-89
2022/04/22 10:16:36;;;;;;;5.07;3.67;;;6.40;99.90;;;;;;6314963;22;20178;-89
2022/04/22 10:19:09;;;;;;;5.43;3.70;;;6.40;99.90;;;;;;6314314;22;20572;-90
2022/04/22 10:21:42;;;;;;;4.40;3.30;;;6.40;99.90;;;;;;6323189;22;20200;-90
2022/04/22 10:24:15;;;;;;;4.13;3.50;;;6.40;99.90;;;;;;6315762;22;20174;-90
2022/04/22 10:26:49;;;;;;;3.47;2.60;;;6.50;99.90;;;;;;6319070;22;20194;-89
2022/04/22 10:29:22;;;;;;;4.03;2.67;;;6.50;99.90;;;;;;6287330;22;20600;-91
2022/04/22 10:31:53;;;;;;;4.40;2.67;;;6.50;99.90;;;;;;6314634;22;20174;-89
2022/04/22 10:34:40;;;;;;;2.60;2.20;;;6.50;99.90;;;;;;6314580;22;20217;-90
2022/04/22 10:37:20;;;;;;;4.53;2.40;;;6.50;99.90;;;;;;6313488;22;20178;-90
2022/04/22 10:39:52;;;;;;;2.20;2.00;;;6.50;99.90;;;;;;6313534;22;20182;-89
2022/04/22 10:42:35;;;;;;;2.70;2.40;;;6.50;99.90;;;;;;6314948;22;20170;-90
2022/04/22 10:48:24;;;;;;;2.53;2.20;;;6.50;99.90;;;;;;6313168;22;20660;-90
2022/04/22 10:51:00;;;;;;;2.53;2.10;;;6.50;99.90;;;;;;6314473;22;20187;-91
2022/04/22 10:53:33;;;;;;;3.03;2.10;;;6.50;99.90;;;;;;6314151;22;20166;-90
2022/04/22 10:56:33;;;;;;;3.17;2.37;;;6.50;99.90;;;;;;6317118;22;20178;-90
2022/04/22 10:59:32;;;;;;;2.77;2.30;;;6.60;99.90;;;;;;6313615;22;20191;-90
2022/04/22 11:02:29;;;;;;;2.97;2.67;;;6.60;99.90;;;;;;6306746;22;20184;-90
2022/04/22 11:05:38;;;;;;;2.67;2.43;;;6.60;99.90;;;;;;6314870;22;20252;-90
2022/04/22 11:08:17;;;;;;;4.10;2.70;;;6.60;99.90;;;;;;6312854;22;20208;-90
2022/04/22 11:11:07;;;;;;;2.77;2.37;;;6.60;99.90;;;;;;6319026;22;20177;-91
2022/04/22 11:13:44;;;;;;;3.43;1.73;;;6.60;99.90;;;;;;6330186;22;20555;-90
2022/04/22 11:16:25;;;;;;;2.37;1.90;;;6.60;99.90;;;;;;6332304;22;20206;-90
2022/04/22 11:19:13;;;;;;;3.90;1.80;;;6.60;99.90;;;;;;6313272;22;20174;-91
2022/04/22 11:21:44;;;;;;;4.07;2.00;;;6.60;99.90;;;;;;6314399;22;20232;-89
2022/04/22 11:24:20;;;;;;;2.17;1.97;;;6.60;99.90;;;;;;6323844;22;20157;-91
2022/04/22 11:26:52;;;;;;;2.03;1.83;;;6.60;99.90;;;;;;6333061;22;20170;-91
2022/04/22 11:29:24;;;;;;;3.67;2.13;;;6.60;99.90;;;;;;6331346;22;20177;-90
2022/04/22 11:32:14;;;;;;;2.80;2.03;;;6.60;99.90;;;;;;6329940;22;20199;-90
2022/04/22 11:35:13;;;;;;;2.00;1.80;;;6.60;99.90;;;;;;6327136;22;20169;-90
2022/04/22 11:37:45;;;;;;;1.73;1.63;;;6.60;99.90;;;;;;6313723;22;20178;-90
2022/04/22 11:40:21;;;;;;;1.80;1.60;;;6.70;99.90;;;;;;6335250;22;20224;-90
2022/04/22 11:42:54;;;;;;;2.43;1.90;;;6.70;99.90;;;;;;6332553;22;20169;-89
2022/04/22 11:45:25;;;;;;;2.33;1.80;;;6.60;99.90;;;;;;6327995;22;20232;-90
2022/04/22 11:48:09;;;;;;;2.13;1.93;;;6.60;99.90;;;;;;6324646;22;20194;-91
2022/04/22 11:50:42;;;;;;;3.30;2.07;;;6.60;99.90;;;;;;6327167;22;20182;-89
2022/04/22 11:53:17;;;;;;;2.47;1.83;;;6.60;99.90;;;;;;6323128;22;20174;-90
2022/04/22 11:55:50;;;;;;;2.30;1.70;;;6.60;99.90;;;;;;6319192;22;20641;-91
2022/04/22 11:58:24;;;;;;;2.20;2.00;;;6.60;99.90;;;;;;6316734;22;20609;-90
2022/04/22 12:06:43;;;;;;;2.53;1.87;;;6.70;99.90;;;;;;6315221;22;20169;-90
2022/04/22 12:09:14;;;;;;;1.77;1.60;;;6.70;99.90;;;;;;6313675;22;20186;-90
2022/04/22 12:11:46;;;;;;;2.70;1.70;;;6.70;99.90;;;;;;6314112;22;20193;-90
2022/04/22 12:14:25;;;;;;;2.73;2.30;;;6.70;99.90;;;;;;6314038;22;20173;-90
2022/04/22 12:16:58;;;;;;;2.73;1.70;;;6.70;99.90;;;;;;6314333;22;20174;-89
2022/04/22 12:19:32;;;;;;;2.07;1.80;;;6.60;99.90;;;;;;6313915;22;20201;-91
2022/04/22 12:22:06;;;;;;;2.17;1.60;;;6.60;99.90;;;;;;6314672;22;20480;-91
2022/04/22 12:24:39;;;;;;;2.57;1.70;;;6.70;99.90;;;;;;6287742;22;20239;-90
2022/04/22 12:27:22;;;;;;;1.60;1.47;;;6.70;99.90;;;;;;6313288;22;20189;-91
2022/04/22 12:30:04;;;;;;;1.60;1.50;;;6.70;99.90;;;;;;6318438;22;20170;-89
2022/04/22 12:32:36;;;;;;;4.53;1.30;;;6.70;99.90;;;;;;6290816;22;20196;-91
2022/04/22 12:35:17;;;;;;;1.70;1.30;;;6.70;99.90;;;;;;6314353;22;20178;-91
2022/04/22 12:37:54;;;;;;;2.10;1.50;;;6.60;99.90;;;;;;6314450;22;20201;-91
2022/04/22 12:40:26;;;;;;;1.83;1.63;;;6.60;99.90;;;;;;6314887;22;20565;-90
2022/04/22 12:43:17;;;;;;;1.73;1.30;;;6.60;99.90;;;;;;6314824;22;20543;-89
2022/04/22 12:54:35;;;;;;;2.20;1.50;;;6.60;99.90;;;;;;6315146;22;20175;-90
2022/04/22 12:57:07;;;;;;;1.90;1.80;;;6.70;99.90;;;;;;6314144;22;20181;-91
2022/04/22 12:59:45;;;;;;;1.63;1.53;;;6.70;99.90;;;;;;6313173;22;20175;-90
2022/04/22 13:02:18;;;;;;;2.83;1.67;;;6.80;99.90;;;;;;6287485;22;20165;-91
2022/04/22 13:04:57;;;;;;;2.80;1.90;;;6.70;99.90;;;;;;6314101;22;20191;-90
2022/04/22 13:07:42;;;;;;;3.07;1.80;;;6.70;99.90;;;;;;6312485;22;20174;-91
2022/04/22 13:10:14;;;;;;;2.80;1.60;;;6.70;99.90;;;;;;6313463;22;20174;-91
2022/04/22 13:12:48;;;;;;;1.83;1.63;;;6.70;99.90;;;;;;6313825;22;20174;-90
2022/04/22 13:15:20;;;;;;;1.67;1.43;;;6.80;99.90;;;;;;6314068;22;20163;-91
2022/04/22 13:17:53;;;;;;;3.60;1.90;;;6.80;99.90;;;;;;6286662;22;20190;-91
2022/04/22 13:20:25;;;;;;;2.03;1.60;;;6.80;99.90;;;;;;6318127;22;20205;-90
2022/04/22 13:22:59;;;;;;;1.60;1.50;;;6.70;99.90;;;;;;6315482;22;20166;-91
2022/04/22 13:25:32;;;;;;;3.33;2.07;;;6.70;99.90;;;;;;6333826;22;20188;-89
2022/04/22 13:28:05;;;;;;;2.97;1.67;;;6.70;99.90;;;;;;6304588;22;20227;-89
2022/04/22 13:30:43;;;;;;;2.90;1.97;;;6.70;99.90;;;;;;6324884;22;20242;-89
2022/04/22 13:33:16;;;;;;;2.17;1.70;;;6.80;99.90;;;;;;6315566;22;20176;-89
2022/04/22 13:35:54;;;;;;;3.10;1.73;;;6.80;99.90;;;;;;6281407;22;21603;-89
2022/04/22 13:38:29;;;;;;;2.63;1.80;;;6.80;99.90;;;;;;6312662;22;20200;-91
2022/04/22 13:41:01;;;;;;;2.40;2.13;;;6.90;99.90;;;;;;6287722;22;20206;-90
2022/04/22 13:43:33;;;;;;;2.33;2.00;;;6.90;99.90;;;;;;6313635;22;20183;-91
2022/04/22 13:54:33;;;;;;;1.87;1.70;;;7.00;99.90;;;;;;6313512;22;20686;-90
2022/04/22 13:57:05;;;;;;;2.07;1.83;;;7.00;99.90;;;;;;6287627;22;20169;-91
2022/04/22 13:59:36;;;;;;;2.23;2.00;;;7.10;99.90;;;;;;6312987;22;20200;-90
2022/04/22 14:02:08;;;;;;;2.50;2.17;;;7.10;99.90;;;;;;6329001;22;20178;-90
2022/04/22 14:04:41;;;;;;;2.30;2.10;;;7.10;99.90;;;;;;6332111;22;20245;-90
2022/04/22 14:07:12;;;;;;;2.87;2.00;;;7.20;99.90;;;;;;6321029;22;20186;-93
2022/04/22 14:09:53;;;;;;;2.97;2.23;;;7.30;99.90;;;;;;6323876;22;20205;-90
2022/04/22 14:12:25;;;;;;;3.57;2.33;;;7.30;99.90;;;;;;6316249;22;20501;-90
2022/04/22 14:14:58;;;;;;;2.10;1.90;;;7.30;99.90;;;;;;6326732;22;20178;-90
2022/04/22 14:17:33;;;;;;;5.27;2.33;;;7.30;99.90;;;;;;6298131;22;20174;-90
2022/04/22 14:20:06;;;;;;;3.13;2.37;;;7.40;99.90;;;;;;6319324;22;20177;-90
2022/04/22 14:25:27;;;;;;;3.90;2.20;;;7.40;99.90;;;;;;6318038;22;20171;-90
2022/04/22 14:28:02;;;;;;;2.83;2.27;;;7.40;99.90;;;;;;6299548;22;20178;-90
2022/04/22 14:33:18;;;;;;;2.60;2.30;;;7.30;99.90;;;;;;6326216;22;20162;-91
2022/04/22 14:35:53;;;;;;;3.33;2.20;;;7.30;99.90;;;;;;6300377;22;20163;-89
2022/04/22 14:38:28;;;;;;;2.90;2.60;;;7.30;99.90;;;;;;6328126;22;20173;-90
2022/04/22 14:41:05;;;;;;;4.57;2.50;;;7.40;99.90;;;;;;6329191;22;20161;-89
2022/04/22 14:43:38;;;;;;;3.40;2.53;;;7.50;99.90;;;;;;6327960;22;20197;-90
2022/04/22 14:46:09;;;;;;;4.50;2.60;;;7.50;99.90;;;;;;6317874;22;20167;-89
2022/04/22 14:48:41;;;;;;;2.97;2.60;;;7.60;99.90;;;;;;6316555;22;20174;-90
2022/04/22 14:51:12;;;;;;;3.03;2.57;;;7.80;99.90;;;;;;6312512;22;20186;-90
2022/04/22 14:53:50;;;;;;;3.93;2.53;;;7.90;99.90;;;;;;6314659;22;20184;-89
2022/04/22 14:56:24;;;;;;;5.03;2.80;;;8.00;99.90;;;;;;6315467;22;20173;-90
2022/04/22 14:59:13;;;;;;;3.37;2.70;;;8.00;99.90;;;;;;6311266;22;20185;-90
2022/04/22 15:01:46;;;;;;;4.27;2.97;;;8.00;99.90;;;;;;6316124;22;20205;-90
2022/04/22 15:04:18;;;;;;;4.30;2.83;;;8.00;99.90;;;;;;6305447;22;20181;-90
2022/04/22 15:06:53;;;;;;;4.03;2.50;;;8.10;99.90;;;;;;6300010;22;20174;-91
2022/04/22 15:09:25;;;;;;;3.70;2.87;;;8.00;99.90;;;;;;6325838;22;20193;-90
2022/04/22 15:11:59;;;;;;;3.53;2.90;;;8.00;99.90;;;;;;6331587;22;20175;-91